createdAt,value
2018-10-02T00:00:31.738Z,4.40
2018-10-02T00:02:59.990Z,3.17
2018-10-02T00:05:28.279Z,4.17
2018-10-02T00:07:56.686Z,3.20
2018-10-02T00:10:24.954Z,7.83
2018-10-02T00:12:58.602Z,8.13
2018-10-02T00:15:26.840Z,5.70
2018-10-02T00:17:55.225Z,6.67
2018-10-02T00:20:23.495Z,5.23
2018-10-02T00:22:51.746Z,3.27
2018-10-02T00:25:20.059Z,5.97
2018-10-02T00:27:48.297Z,4.57
2018-10-02T00:30:16.591Z,5.13
2018-10-02T00:32:44.889Z,3.57
2018-10-02T00:35:13.129Z,6.20
2018-10-02T00:37:41.415Z,3.80
2018-10-02T00:40:09.691Z,5.67
2018-10-02T00:42:38.009Z,5.80
2018-10-02T00:45:06.314Z,10.13
2018-10-02T00:47:34.749Z,6.43
2018-10-02T00:50:03.044Z,4.40
2018-10-02T00:52:31.299Z,6.47
2018-10-02T00:54:59.528Z,5.00
2018-10-02T00:57:27.909Z,7.03
2018-10-02T00:59:56.181Z,6.63
2018-10-02T01:02:24.446Z,4.97
2018-10-02T01:04:52.724Z,5.67
2018-10-02T01:07:21.128Z,5.00
2018-10-02T01:09:58.488Z,5.00
2018-10-02T01:12:27.141Z,6.30
2018-10-02T01:14:56.149Z,6.80
2018-10-02T01:17:24.723Z,5.60
2018-10-02T01:19:52.973Z,4.33
2018-10-02T01:22:21.231Z,9.97
2018-10-02T01:24:49.476Z,4.57
2018-10-02T01:27:17.925Z,8.07
2018-10-02T01:29:46.268Z,5.57
2018-10-02T01:32:14.539Z,3.13
2018-10-02T01:34:42.807Z,4.33
2018-10-02T01:37:11.097Z,3.70
2018-10-02T01:39:39.379Z,4.70
2018-10-02T01:42:07.629Z,5.87
2018-10-02T01:44:35.913Z,2.83
2018-10-02T01:47:04.199Z,6.77
2018-10-02T01:49:32.563Z,5.57
2018-10-02T01:52:01.816Z,3.77
2018-10-02T01:54:30.108Z,6.77
2018-10-02T01:56:59.187Z,6.27
2018-10-02T01:59:27.487Z,5.47
2018-10-02T02:01:55.932Z,3.80
2018-10-02T02:04:24.169Z,5.03
2018-10-02T02:06:52.689Z,3.13
2018-10-02T02:09:20.985Z,3.90
2018-10-02T02:11:49.232Z,6.63
2018-10-02T02:14:17.500Z,1.50
2018-10-02T02:16:45.741Z,2.80
2018-10-02T02:19:13.977Z,4.03
2018-10-02T02:21:42.259Z,3.50
2018-10-02T02:24:10.497Z,4.13
2018-10-02T02:26:38.919Z,5.07
2018-10-02T02:29:09.194Z,5.50
2018-10-02T02:31:37.905Z,4.77
2018-10-02T02:34:07.012Z,4.30
2018-10-02T02:36:35.569Z,1.97
2018-10-02T02:39:07.313Z,5.07
2018-10-02T02:41:35.626Z,4.43
2018-10-02T02:44:04.152Z,4.80
2018-10-02T02:46:32.463Z,4.63
2018-10-02T02:51:59.850Z,3.20
2018-10-02T02:54:28.331Z,3.40
2018-10-02T02:56:57.328Z,2.37
2018-10-02T02:59:25.588Z,4.20
2018-10-02T03:01:53.834Z,2.77
2018-10-02T03:04:22.195Z,3.37
2018-10-02T03:06:50.584Z,3.03
2018-10-02T03:09:18.853Z,3.33
2018-10-02T03:11:47.128Z,2.03
2018-10-02T03:14:15.408Z,2.90
2018-10-02T03:16:43.725Z,2.10
2018-10-02T03:19:11.983Z,2.70
2018-10-02T03:21:40.650Z,2.73
2018-10-02T03:24:09.777Z,3.53
2018-10-02T03:26:38.317Z,5.60
2018-10-02T03:29:06.911Z,4.53
2018-10-02T03:31:35.168Z,4.40
2018-10-02T03:34:03.427Z,4.10
2018-10-02T03:36:31.771Z,3.03
2018-10-02T03:39:00.025Z,3.03
2018-10-02T03:41:28.948Z,3.30
2018-10-02T03:43:57.211Z,4.63
2018-10-02T03:46:25.678Z,3.10
2018-10-02T03:48:53.923Z,3.53
2018-10-02T03:51:22.200Z,3.60
2018-10-02T03:53:50.451Z,4.80
2018-10-02T03:56:19.161Z,3.73
2018-10-02T03:58:47.698Z,3.67
2018-10-02T04:01:15.982Z,3.97
2018-10-02T04:03:44.499Z,4.07
2018-10-02T04:06:13.002Z,4.07
2018-10-02T04:08:41.279Z,3.33
2018-10-02T04:11:10.091Z,4.00
2018-10-02T04:13:38.353Z,4.40
2018-10-02T04:16:06.867Z,3.40
2018-10-02T04:18:36.154Z,8.43
2018-10-02T04:21:04.439Z,4.77
2018-10-02T04:23:32.727Z,5.80
2018-10-02T04:26:03.357Z,4.70
2018-10-02T04:28:31.778Z,6.87
2018-10-02T04:30:59.936Z,8.67
2018-10-02T04:33:28.201Z,5.67
2018-10-02T04:35:58.591Z,5.03
2018-10-02T04:38:36.218Z,5.90
2018-10-02T04:41:04.873Z,6.43
2018-10-02T04:43:38.499Z,6.77
2018-10-02T04:46:11.369Z,10.27
2018-10-02T04:48:39.962Z,6.40
2018-10-02T04:51:08.713Z,8.93
2018-10-02T04:53:37.164Z,14.37
2018-10-02T04:56:05.611Z,6.87
2018-10-02T04:58:33.813Z,5.77
2018-10-02T05:01:02.328Z,11.43
2018-10-02T05:03:31.081Z,6.67
2018-10-02T05:05:59.852Z,8.63
2018-10-02T05:08:28.196Z,7.80
2018-10-02T05:10:56.430Z,5.27
2018-10-02T05:13:25.491Z,7.90
2018-10-02T05:15:55.053Z,8.23
2018-10-02T05:18:23.328Z,7.97
2018-10-02T05:20:51.665Z,8.70
2018-10-02T05:23:20.173Z,10.17
2018-10-02T05:25:48.707Z,8.90
2018-10-02T05:28:16.992Z,8.77
2018-10-02T05:30:45.421Z,8.70
2018-10-02T05:33:13.673Z,7.00
2018-10-02T05:35:41.973Z,8.00
2018-10-02T05:38:10.270Z,10.67
2018-10-02T05:40:38.716Z,7.10
2018-10-02T05:43:07.198Z,8.33
2018-10-02T05:45:35.684Z,8.03
2018-10-02T05:48:04.238Z,7.37
2018-10-02T05:50:32.660Z,7.83
2018-10-02T05:53:00.908Z,8.53
2018-10-02T05:55:29.386Z,6.67
2018-10-02T05:57:57.933Z,5.90
2018-10-02T06:00:26.385Z,6.93
2018-10-02T06:02:54.644Z,6.90
2018-10-02T06:05:23.120Z,7.80
2018-10-02T06:07:52.414Z,6.60
2018-10-02T06:10:20.880Z,5.97
2018-10-02T06:12:49.860Z,10.83
2018-10-02T06:15:19.908Z,6.07
2018-10-02T06:17:48.407Z,6.77
2018-10-02T06:20:16.932Z,4.63
2018-10-02T06:22:45.204Z,5.10
2018-10-02T06:25:13.483Z,5.00
2018-10-02T06:27:41.893Z,4.60
2018-10-02T06:30:10.609Z,4.13
2018-10-02T06:32:38.863Z,5.57
2018-10-02T06:35:07.180Z,4.23
2018-10-02T06:37:35.591Z,4.47
2018-10-02T06:40:03.928Z,4.00
2018-10-02T06:42:32.208Z,4.60
2018-10-02T06:45:00.602Z,4.30
2018-10-02T06:47:28.934Z,3.13
2018-10-02T06:52:50.567Z,4.03
2018-10-02T06:55:18.959Z,3.77
2018-10-02T06:57:47.384Z,2.93
2018-10-02T07:00:15.662Z,2.40
2018-10-02T07:02:43.988Z,2.83
2018-10-02T07:05:12.388Z,2.00
2018-10-02T07:07:40.700Z,3.03
2018-10-02T07:10:09.201Z,2.70
2018-10-02T07:12:37.570Z,3.17
2018-10-02T07:15:06.073Z,1.87
2018-10-02T07:17:34.481Z,4.23
2018-10-02T07:20:02.721Z,1.90
2018-10-02T07:22:31.012Z,1.80
2018-10-02T07:24:59.327Z,3.07
2018-10-02T07:27:27.876Z,3.03
2018-10-02T07:29:56.073Z,2.53
2018-10-02T07:32:24.412Z,2.30
2018-10-02T07:34:52.663Z,3.13
2018-10-02T07:37:21.046Z,1.60
2018-10-02T07:39:49.680Z,2.17
2018-10-02T07:42:18.058Z,2.90
2018-10-02T07:44:46.300Z,2.10
2018-10-02T07:47:14.774Z,3.90
2018-10-02T07:49:43.105Z,1.80
2018-10-02T07:52:11.729Z,1.37
2018-10-02T07:54:40.046Z,3.00
2018-10-02T07:57:08.511Z,2.93
2018-10-02T07:59:36.926Z,3.83
2018-10-02T08:02:05.164Z,1.60
2018-10-02T08:04:33.444Z,1.57
2018-10-02T08:07:01.808Z,2.93
2018-10-02T08:09:30.100Z,3.03
2018-10-02T08:11:58.483Z,1.70
2018-10-02T08:14:26.763Z,2.33
2018-10-02T08:16:55.081Z,1.97
2018-10-02T08:19:23.361Z,2.37
2018-10-02T08:21:51.635Z,1.13
2018-10-02T08:24:19.902Z,1.00
2018-10-02T08:26:48.258Z,1.93
2018-10-02T08:29:16.597Z,1.33
2018-10-02T08:31:44.847Z,1.13
2018-10-02T08:34:13.129Z,1.47
2018-10-02T08:36:41.492Z,1.25
2018-10-02T08:39:11.115Z,1.47
2018-10-02T08:41:39.940Z,1.20
2018-10-02T08:44:08.298Z,2.43
2018-10-02T08:46:36.732Z,1.80
2018-10-02T08:49:05.067Z,1.73
2018-10-02T08:51:33.334Z,1.17
2018-10-02T08:54:01.769Z,1.13
2018-10-02T08:56:30.166Z,1.17
2018-10-02T08:58:58.455Z,1.00
2018-10-02T09:01:26.751Z,1.10
2018-10-02T09:03:55.059Z,1.40
2018-10-02T09:06:23.496Z,1.53
2018-10-02T09:08:51.754Z,2.50
2018-10-02T09:11:20.507Z,1.27
2018-10-02T09:13:48.851Z,3.90
2018-10-02T09:16:17.244Z,3.90
2018-10-02T09:18:45.534Z,2.80
2018-10-02T09:21:13.798Z,4.00
2018-10-02T09:23:42.176Z,3.97
2018-10-02T09:26:10.498Z,4.73
2018-10-02T09:28:38.788Z,5.40
2018-10-02T09:31:12.471Z,3.70
2018-10-02T09:33:45.966Z,7.00
2018-10-02T09:36:19.612Z,5.07
2018-10-02T09:38:53.117Z,8.83
2018-10-02T09:41:26.736Z,5.63
2018-10-02T09:43:57.602Z,6.03
2018-10-02T09:46:26.421Z,8.50
2018-10-02T09:48:54.776Z,5.20
2018-10-02T09:51:23.019Z,6.10
2018-10-02T09:53:51.294Z,5.77
2018-10-02T09:56:22.643Z,7.67
2018-10-02T09:58:50.928Z,6.93
2018-10-02T10:01:24.692Z,7.43
2018-10-02T10:03:53.141Z,12.63
2018-10-02T10:06:21.620Z,9.67
2018-10-02T10:08:49.880Z,8.57
2018-10-02T10:11:18.158Z,9.40
2018-10-02T10:13:46.427Z,8.43
2018-10-02T10:16:14.956Z,10.73
2018-10-02T10:18:43.243Z,7.77
2018-10-02T10:21:11.521Z,10.17
2018-10-02T10:23:39.768Z,7.70
2018-10-02T10:26:08.278Z,8.57
2018-10-02T10:32:21.017Z,11.57
2018-10-02T10:34:50.377Z,8.80
2018-10-02T10:37:18.716Z,10.33
2018-10-02T10:43:48.722Z,6.40
2018-10-02T10:46:35.787Z,10.87
2018-10-02T10:50:55.084Z,10.20
2018-10-02T10:54:19.102Z,7.70
2018-10-02T10:57:09.100Z,5.53
2018-10-02T11:12:06.200Z,8.03
2018-10-02T11:20:45.854Z,5.30
2018-10-02T11:23:15.480Z,7.93
2018-10-02T11:25:43.922Z,8.50
2018-10-02T11:28:22.557Z,8.70
2018-10-02T11:30:51.203Z,8.47
2018-10-02T11:33:23.740Z,6.30
2018-10-02T11:35:56.614Z,8.27
2018-10-02T11:38:34.566Z,8.13
2018-10-02T11:44:02.102Z,10.33
2018-10-02T11:46:34.284Z,7.93
2018-10-02T11:49:02.540Z,6.63
2018-10-02T11:51:32.354Z,7.03
2018-10-02T11:54:00.590Z,6.70
2018-10-02T11:56:29.753Z,7.73
2018-10-02T11:58:58.032Z,7.87
2018-10-02T12:01:26.516Z,11.00
2018-10-02T12:03:54.772Z,5.37
2018-10-02T12:06:23.208Z,5.30
2018-10-02T12:09:01.797Z,7.30
2018-10-02T12:11:34.858Z,9.07
2018-10-02T12:14:03.944Z,9.93
2018-10-02T12:16:32.424Z,7.77
2018-10-02T12:19:02.657Z,5.33
2018-10-02T12:21:30.938Z,6.83
2018-10-02T12:26:55.986Z,8.13
2018-10-02T12:29:25.107Z,5.17
2018-10-02T12:31:59.579Z,7.20
2018-10-02T12:34:27.882Z,8.80
2018-10-02T12:36:57.566Z,6.20
2018-10-02T12:39:26.205Z,6.93
2018-10-02T12:41:54.471Z,3.60
2018-10-02T12:44:22.810Z,8.50
2018-10-02T12:46:51.303Z,7.93
2018-10-02T12:49:19.540Z,9.53
2018-10-02T12:51:47.898Z,9.27
2018-10-02T12:54:16.252Z,10.27
2018-10-02T12:56:44.718Z,7.63
2018-10-02T12:59:13.124Z,6.63
2018-10-02T13:01:41.435Z,6.03
2018-10-02T13:04:09.735Z,8.90
2018-10-02T13:06:38.228Z,8.07
2018-10-02T13:09:07.699Z,6.93
2018-10-02T13:11:36.056Z,5.93
2018-10-02T13:14:04.449Z,6.30
2018-10-02T13:16:32.992Z,8.70
2018-10-02T13:19:01.340Z,9.23
2018-10-02T13:21:29.711Z,8.27
2018-10-02T13:23:58.041Z,5.20
2018-10-02T13:26:26.438Z,7.60
2018-10-02T13:28:54.997Z,8.20
2018-10-02T13:31:23.373Z,9.13
2018-10-02T13:33:51.730Z,7.50
2018-10-02T13:36:20.150Z,11.20
2018-10-02T13:41:44.464Z,9.20
2018-10-02T13:44:12.866Z,11.03
2018-10-02T13:46:41.513Z,6.93
2018-10-02T13:49:09.788Z,5.27
2018-10-02T13:51:38.144Z,9.13
2018-10-02T13:54:06.468Z,8.27
2018-10-02T13:56:34.782Z,6.80
2018-10-02T13:59:03.064Z,8.97
2018-10-02T14:01:31.370Z,8.67
2018-10-02T14:03:59.674Z,10.27
2018-10-02T14:06:29.500Z,6.90
2018-10-02T14:08:57.760Z,5.07
2018-10-02T14:11:26.063Z,7.03
2018-10-02T14:13:54.363Z,6.83
2018-10-02T14:16:27.348Z,8.97
2018-10-02T14:24:35.212Z,7.80
2018-10-02T14:27:05.155Z,10.23
2018-10-02T14:29:33.977Z,4.37
2018-10-02T14:32:02.283Z,12.33
2018-10-02T14:34:30.556Z,11.63
2018-10-02T14:36:58.989Z,7.30
2018-10-02T14:39:27.219Z,9.60
2018-10-02T14:41:55.503Z,9.37
2018-10-02T14:44:23.805Z,8.50
2018-10-02T14:46:52.087Z,12.30
2018-10-02T14:49:20.626Z,14.20
2018-10-02T14:51:48.894Z,13.47
2018-10-02T14:54:17.191Z,9.93
2018-10-02T14:56:45.915Z,14.47
2018-10-02T14:59:14.204Z,6.80
2018-10-02T15:01:42.467Z,5.10
2018-10-02T15:04:10.723Z,6.90
2018-10-02T15:06:39.108Z,11.30
2018-10-02T15:09:07.912Z,6.87
2018-10-02T15:11:36.218Z,9.20
2018-10-02T15:14:05.676Z,6.33
2018-10-02T15:16:34.102Z,5.87
2018-10-02T15:19:02.399Z,8.50
2018-10-02T15:21:30.685Z,9.57
2018-10-02T15:26:03.852Z,9.20
2018-10-02T15:31:39.272Z,8.90
2018-10-02T15:37:07.352Z,9.87
2018-10-02T15:39:36.388Z,7.60
2018-10-02T15:42:06.299Z,8.60
2018-10-02T15:44:34.579Z,14.10
2018-10-02T15:47:13.834Z,13.47
2018-10-02T15:49:42.865Z,6.43
2018-10-02T15:55:04.377Z,5.83
2018-10-02T15:57:32.719Z,9.93
2018-10-02T16:00:22.774Z,11.97
2018-10-02T16:04:40.074Z,8.97
2018-10-02T16:07:32.420Z,12.27
2018-10-02T16:13:17.214Z,11.20
2018-10-02T16:15:46.535Z,8.63
2018-10-02T16:18:15.716Z,9.50
2018-10-02T16:21:04.408Z,12.60
2018-10-02T16:29:29.724Z,10.43
2018-10-02T16:31:58.209Z,10.07
2018-10-02T16:34:27.483Z,11.10
2018-10-02T16:36:55.851Z,12.87
2018-10-02T16:39:26.591Z,9.97
2018-10-02T16:41:54.858Z,8.07
2018-10-02T16:44:23.150Z,10.33
2018-10-02T16:47:04.943Z,11.23
2018-10-02T16:49:34.494Z,10.63
2018-10-02T16:52:02.761Z,7.43
2018-10-02T16:54:31.118Z,9.60
2018-10-02T16:57:00.530Z,9.47
2018-10-02T16:59:29.212Z,11.70
2018-10-02T17:01:58.400Z,12.37
2018-10-02T17:04:26.652Z,12.67
2018-10-02T17:06:55.857Z,13.73
2018-10-02T17:09:24.703Z,10.87
2018-10-02T17:11:57.499Z,10.50
2018-10-02T17:14:26.216Z,10.53
2018-10-02T17:16:55.152Z,8.00
2018-10-02T17:19:23.426Z,9.70
2018-10-02T17:21:52.771Z,10.87
2018-10-02T17:24:21.056Z,12.50
2018-10-02T17:26:49.450Z,7.77
2018-10-02T17:32:16.114Z,10.87
2018-10-02T17:34:44.368Z,11.57
2018-10-02T17:37:14.476Z,13.23
2018-10-02T17:39:42.991Z,10.87
2018-10-02T17:42:11.583Z,12.30
2018-10-02T17:44:40.118Z,14.63
2018-10-02T17:47:09.444Z,9.97
2018-10-02T17:49:38.332Z,15.03
2018-10-02T17:52:06.947Z,13.13
2018-10-02T17:54:35.725Z,13.43
2018-10-02T17:57:06.026Z,12.80
2018-10-02T17:59:34.328Z,10.77
2018-10-02T18:02:02.634Z,12.53
2018-10-02T18:04:31.208Z,11.20
2018-10-02T18:06:59.707Z,10.83
2018-10-02T18:09:28.443Z,11.40
2018-10-02T18:11:57.551Z,10.97
2018-10-02T18:14:25.912Z,14.40
2018-10-02T18:17:00.397Z,9.47
2018-10-02T18:19:28.795Z,11.23
2018-10-02T18:34:10.312Z,13.60
2018-10-02T18:36:41.182Z,13.00
2018-10-02T18:39:09.465Z,14.47
2018-10-02T18:41:37.941Z,11.47
2018-10-02T18:44:07.256Z,15.87
2018-10-02T18:46:36.505Z,13.50
2018-10-02T18:49:06.454Z,13.17
2018-10-02T18:51:34.705Z,13.33
2018-10-02T18:54:09.689Z,14.63
2018-10-02T18:57:53.535Z,15.07
2018-10-02T19:00:35.218Z,13.53
2018-10-02T19:03:03.512Z,17.60
2018-10-02T19:05:31.847Z,9.40
2018-10-02T19:08:02.916Z,12.33
2018-10-02T19:10:41.340Z,12.57
2018-10-02T19:13:23.882Z,13.80
2018-10-02T19:16:15.805Z,14.70
2018-10-02T19:27:22.954Z,16.13
2018-10-02T19:32:08.077Z,14.47
2018-10-02T19:34:37.173Z,15.23
2018-10-02T19:37:09.908Z,12.13
2018-10-02T19:39:39.653Z,15.83
2018-10-02T19:42:07.960Z,14.00
2018-10-02T19:44:36.444Z,14.20
2018-10-02T19:47:07.263Z,17.53
2018-10-02T19:49:36.544Z,12.97
2018-10-02T19:52:12.321Z,13.27
2018-10-02T19:54:40.731Z,19.83
2018-10-02T19:57:17.407Z,12.70
2018-10-02T19:59:47.356Z,11.87
2018-10-02T20:02:15.692Z,13.57
2018-10-02T20:04:45.202Z,13.83
2018-10-02T20:07:15.306Z,16.00
2018-10-02T20:09:44.626Z,14.13
2018-10-02T20:12:20.090Z,14.47
2018-10-02T20:14:48.370Z,14.33
2018-10-02T20:17:17.466Z,11.53
2018-10-02T20:19:47.057Z,11.67
2018-10-02T20:22:15.562Z,21.07
2018-10-02T20:24:43.821Z,16.30
2018-10-02T20:27:12.120Z,18.00
2018-10-02T20:29:41.074Z,16.17
2018-10-02T20:32:11.148Z,14.83
2018-10-02T20:34:39.395Z,17.47
2018-10-02T20:37:08.369Z,17.60
2018-10-02T20:39:36.694Z,12.97
2018-10-02T20:42:05.078Z,23.80
2018-10-02T20:44:33.338Z,15.03
2018-10-02T20:47:02.042Z,16.60
2018-10-02T20:49:30.476Z,18.47
2018-10-02T20:52:01.898Z,12.67
2018-10-02T20:54:30.171Z,18.63
2018-10-02T20:56:58.626Z,18.03
2018-10-02T20:59:26.909Z,19.93
2018-10-02T21:01:55.174Z,21.57
2018-10-02T21:04:23.487Z,17.37
2018-10-02T21:06:51.908Z,21.53
2018-10-02T21:09:20.162Z,12.37
2018-10-02T21:11:48.467Z,13.63
2018-10-02T21:14:17.187Z,15.20
2018-10-02T21:16:45.721Z,16.20
2018-10-02T21:19:14.016Z,15.80
2018-10-02T21:21:42.716Z,13.00
2018-10-02T21:24:10.998Z,14.90
2018-10-02T21:26:39.352Z,16.27
2018-10-02T21:29:07.636Z,18.47
2018-10-02T21:31:35.968Z,13.83
2018-10-02T21:34:04.244Z,23.63
2018-10-02T21:36:32.630Z,15.33
2018-10-02T21:39:01.295Z,14.60
2018-10-02T21:41:29.589Z,13.03
2018-10-02T21:43:57.964Z,15.33
2018-10-02T21:46:26.367Z,16.23
2018-10-02T21:48:54.648Z,12.47
2018-10-02T21:51:23.748Z,14.87
2018-10-02T21:53:52.020Z,13.97
2018-10-02T21:56:20.469Z,16.43
2018-10-02T21:58:48.778Z,13.77
2018-10-02T22:01:17.276Z,12.97
2018-10-02T22:03:45.588Z,16.87
2018-10-02T22:06:14.236Z,18.33
2018-10-02T22:08:42.557Z,15.53
2018-10-02T22:11:10.831Z,14.83
2018-10-02T22:13:39.098Z,13.77
2018-10-02T22:16:07.519Z,16.37
2018-10-02T22:18:35.858Z,15.33
2018-10-02T22:21:04.149Z,14.47
2018-10-02T22:23:32.419Z,13.73
2018-10-02T22:26:00.859Z,15.03
2018-10-02T22:28:29.133Z,15.23
2018-10-02T22:30:57.444Z,17.53
2018-10-02T22:33:25.735Z,13.17
2018-10-02T22:35:54.140Z,15.63
2018-10-02T22:38:22.624Z,9.33
2018-10-02T22:40:50.924Z,13.27
2018-10-02T22:43:19.223Z,17.13
2018-10-02T22:45:47.519Z,16.90
2018-10-02T22:48:15.812Z,14.90
2018-10-02T22:50:44.129Z,12.67
2018-10-02T22:53:13.341Z,13.40
2018-10-02T22:55:41.598Z,14.25
2018-10-02T22:58:10.634Z,16.27
2018-10-02T23:00:38.940Z,14.30
2018-10-02T23:03:07.213Z,10.47
2018-10-02T23:05:35.497Z,13.10
2018-10-02T23:08:03.977Z,11.83
2018-10-02T23:10:32.741Z,16.07
2018-10-02T23:13:01.034Z,11.90
2018-10-02T23:15:29.479Z,14.80
2018-10-02T23:17:57.889Z,10.17
2018-10-02T23:20:26.181Z,14.17
2018-10-02T23:22:54.768Z,15.17
2018-10-02T23:25:23.335Z,16.67
2018-10-02T23:27:52.084Z,13.17
2018-10-02T23:30:20.576Z,14.27
2018-10-02T23:32:48.906Z,19.33
2018-10-02T23:35:17.214Z,16.50
2018-10-02T23:37:45.627Z,16.40
2018-10-02T23:40:14.083Z,12.80
2018-10-02T23:42:42.388Z,17.00
2018-10-02T23:45:13.633Z,17.80
2018-10-02T23:47:42.166Z,14.03
2018-10-02T23:50:10.545Z,11.37
2018-10-02T23:52:38.846Z,11.13
2018-10-02T23:55:07.194Z,15.03
2018-10-02T23:57:35.406Z,9.17
